الصفحة الرئيسية
METAR-TAF:

METAR-TAF

مطار :

Eagle, كولورادو, الولايات المتحدة

دائرة عرض: 39-39N, خط طول: 106-55W, ارتفاع: 1993 متر

مراقبة الطقس الحالي

تاريخ ووقت الإصدار 1ساعة و 5 دقيقة قبل الساعة 19:56UTC
رياح هادئة
درجة الحرارة 3°درجة مئوية
الرطوبة 32%
ضغط 1029 hPa
الرؤية: 16.1 كم
سماء صافية

METAR: KEGE 151956Z 00000KT 10SM CLR 03/M12 A3038 RMK AO2 SLP324 T00331117

زمن: 15:01 (21:01 UTC)

توقعات

تاريخ ووقت الإصدار 3ساعات و 41 دقيقة قبل الساعة 17:20UTC
التوقعات صالحة من15 الساعة 18 UTC إلى 16 الساعة 18 UTC
ريح 3 عقدةمن اتجاهات متغيرة
الرؤية: 10 كم
سماء صافية

TAF: KEGE 151720Z 1518/1618 VRB03KT P6SM SKC

أرصاد الطقس والتوقعات من أكثر من 4000 مطار (تقارير الطقس للمطار METAR والتنبؤ بالطقس بالمطارTAF).

المحطات المتاحة هي النقط الصفراء والحمراء على الخريطة.

حرك المؤشر فوق النقطة لمعرفة اسم المحطة.

ثم انقر لمعرفة أرصاد وتوقعات الطقس.

لتغيير الخارطة: اضغط على الأزرار الخضراء مع رمز الصليب الأسود للتكبير. على الزر الأخضر مع شرطة للتصغير، أو على الأسهم الخضراء للخرائط المجاورة.


METAR-TAF: